Celandine — ONDN — position and weather

sailwx.info

Track history (hours):
 
Tides and Currents Weather Stations Pressure Air Temp Water Temp Dewpoint Dewpoint Depression Visibility Wind Speed Wind Dir Waves Ship Positions

Celandine

Last reported at 2015-May-05 23:33 UTC. Time now 2015-May-06 00:23 UTC.
Position N 57°43' E 011°06'.

Length 162 m; draft 6.2 m.

Type: Ship (hazmat cat A). MMSI: 205476000.

Date/timePositionNaut miles runAvg speedWind from/ knotsBaromVisibWave heightAir tempDewpointWater temp
2015-May-05 23:33N 57°43' E 011°06'1615.6
2015-May-05 22:33N 57°37' E 011°32'1111.4
2015-May-05 21:33N 57°41' E 011°52'0 0.0
2015-May-05 20:33N 57°41' E 011°52'0 0.0
2015-May-05 19:33N 57°41' E 011°52'0 0.0
2015-May-05 18:33N 57°41' E 011°52'0 0.0
2015-May-05 17:30N 57°41' E 011°52'0 0.0
2015-May-05 16:33N 57°41' E 011°52'0 0.0
2015-May-05 15:33N 57°41' E 011°52'0 0.0
2015-May-05 14:33N 57°41' E 011°52'0 0.0
2015-May-05 13:33N 57°41' E 011°52'0 0.0
2015-May-05 12:33N 57°41' E 011°52'0 0.0
2015-May-05 11:33N 57°41' E 011°52'0 0.0
2015-May-05 10:33N 57°41' E 011°52'0 0.0
2015-May-05 09:33N 57°41' E 011°52'0 0.0
2015-May-05 08:33N 57°41' E 011°52'0 0.0
2015-May-05 07:33N 57°41' E 011°52'0 0.0
2015-May-05 06:33N 57°41' E 011°52'0 0.0
2015-May-05 05:33N 57°41' E 011°52'0 0.0
2015-May-05 04:33N 57°41' E 011°52'0 0.0
2015-May-05 03:33N 57°41' E 011°52'0 0.0
2015-May-05 02:33N 57°41' E 011°52'0 0.0
2015-May-05 01:33N 57°41' E 011°52'0 0.0
2015-May-05 00:33N 57°41' E 011°52'0 0.0
2015-May-04 23:33N 57°41' E 011°52'0 0.0
2015-May-04 22:27N 57°41' E 011°52'0 0.0
2015-May-04 21:33N 57°41' E 011°52'0 0.0
2015-May-04 20:33N 57°41' E 011°52'0 0.0
2015-May-04 19:33N 57°41' E 011°52'0 0.0
2015-May-04 18:33N 57°41' E 011°52'0 0.0
2015-May-04 17:33N 57°41' E 011°52'0 0.0
2015-May-04 16:33N 57°41' E 011°52'0 0.0
2015-May-04 15:33N 57°41' E 011°52'0 0.0
2015-May-04 14:33N 57°41' E 011°52'0 0.0
2015-May-04 13:30N 57°41' E 011°52'0 0.0
2015-May-04 12:33N 57°41' E 011°52'0 0.0
2015-May-04 11:33N 57°41' E 011°52'0 0.0
2015-May-04 10:33N 57°41' E 011°52'0 0.0
2015-May-04 09:33N 57°41' E 011°52'0 0.0
2015-May-04 08:30N 57°41' E 011°52'0 0.0
2015-May-04 07:33N 57°41' E 011°52'0 0.0
2015-May-04 06:33N 57°41' E 011°52'0 0.0
2015-May-04 05:33N 57°41' E 011°52'0 0.0
2015-May-04 04:33N 57°41' E 011°52'0 0.0
2015-May-04 03:33N 57°41' E 011°52'10 9.7
2015-May-04 02:34N 57°36' E 011°37'1312.8
2015-May-04 01:33N 57°37' E 011°13'1513.9
2015-May-04 00:29N 57°45' E 010°49'2014.3
2015-May-03 23:06N 57°44' E 010°12'14815.2
2015-May-03 13:24N 55°60' E 006°60'1416.0
2015-May-03 12:33N 55°48' E 006°48'1615.8
2015-May-03 11:32N 55°34' E 006°34'1815.7
2015-May-03 10:25N 55°18' E 006°22'1516.0
2015-May-03 09:30N 55°04' E 006°14'5116.2
2015-May-03 06:19N 54°15' E 005°45'1215.5
2015-May-03 05:33N 54°03' E 005°40'1615.8
2015-May-03 04:33N 53°53' E 005°20'1616.0
2015-May-03 03:33N 53°42' E 004°59'1515.2
2015-May-03 02:33N 53°29' E 004°45'1615.7
2015-May-03 01:33N 53°15' E 004°36'1615.4
2015-May-03 00:33N 53°01' E 004°24'1515.1
2015-May-02 23:33N 52°48' E 004°12'1514.9
2015-May-02 22:33N 52°37' E 003°56'1514.9
2015-May-02 21:33N 52°26' E 003°38'1614.7
2015-May-02 20:29N 52°12' E 003°29'1314.5
2015-May-02 19:33N 51°59' E 003°24'1413.9
2015-May-02 18:33N 51°47' E 003°12'1514.7
2015-May-02 17:33N 51°32' E 003°07'1010.5
2015-May-02 16:34N 51°22' E 003°11'2 2.0
2015-May-02 15:32N 51°21' E 003°13'0 0.0
2015-May-02 14:32N 51°21' E 003°13'0 0.0
2015-May-02 13:29N 51°21' E 003°13'0 0.0
2015-May-02 12:32N 51°21' E 003°13'0 0.0
2015-May-02 11:32N 51°21' E 003°13'0 0.0
2015-May-02 10:32N 51°21' E 003°13'0 0.0
2015-May-02 09:32N 51°21' E 003°13'6 6.3
2015-May-02 08:33N 51°24' E 003°05'5 5.2
2015-May-02 07:33N 51°27' E 002°58'8 8.0
2015-May-02 06:33N 51°33' E 003°07'1110.8
2015-May-02 05:33N 51°44' E 003°10'1110.5
2015-May-02 04:32N 51°54' E 003°17'1010.0
2015-May-02 03:33N 52°03' E 003°21'1210.7
2015-May-02 02:27N 52°14' E 003°29'21 9.5
2015-May-02 00:15N 52°32' E 003°45'6 8.7
2015-May-01 23:32N 52°37' E 003°51'21 9.4
2015-May-01 21:18N 52°57' E 004°01'4810.2
2015-May-01 16:33N 53°38' E 004°45'9 9.3
2015-May-01 15:32N 53°43' E 004°58'10 9.6
2015-May-01 14:32N 53°49' E 005°12'1010.3
2015-May-01 13:33N 53°56' E 005°25'1110.5
2015-May-01 12:33N 54°03' E 005°38'1010.1
2015-May-01 11:33N 54°12' E 005°45'6510.8
2015-May-01 05:33N 55°13' E 006°20'20010.5
2015-Apr-30 10:33N 57°45' E 010°15'1110.8
2015-Apr-30 09:33N 57°50' E 010°33'1110.5
2015-Apr-30 08:33N 57°47' E 010°52'1212.0
2015-Apr-30 07:33N 57°42' E 011°12'1110.8
2015-Apr-30 06:33N 57°37' E 011°30'7 7.2
2015-Apr-30 05:33N 57°40' E 011°42'5 5.4
2015-Apr-30 04:32N 57°41' E 011°52'0 0.0
2015-Apr-30 03:32N 57°41' E 011°52'0 0.0
2015-Apr-30 02:32N 57°41' E 011°52'0 0.0
2015-Apr-30 01:32N 57°41' E 011°52'0 0.0
2015-Apr-30 00:32N 57°41' E 011°52'0 0.0
2015-Apr-29 23:32N 57°41' E 011°52'0 0.0
2015-Apr-29 22:32N 57°41' E 011°52'0 0.0
2015-Apr-29 21:32N 57°41' E 011°52'1 0.5
2015-Apr-29 20:33N 57°41' E 011°51'1313.4
2015-Apr-29 19:34N 57°37' E 011°27'1110.6
2015-Apr-29 18:34N 57°37' E 011°08'1010.0
2015-Apr-29 17:33N 57°43' E 010°51'1312.6
2015-Apr-29 16:29N 57°45' E 010°27'15914.5
2015-Apr-29 05:33N 55°56' E 006°56'1716.9
2015-Apr-29 04:33N 55°41' E 006°41'1716.9
2015-Apr-29 03:33N 55°26' E 006°29'1917.1
2015-Apr-29 02:25N 55°07' E 006°17'5617.0
2015-Apr-28 23:08N 54°15' E 005°46'1016.5
2015-Apr-28 22:33N 54°06' E 005°40'1716.6
2015-Apr-28 21:33N 53°53' E 005°22'1616.5
2015-Apr-28 20:33N 53°41' E 005°03'1715.6
2015-Apr-28 19:29N 53°29' E 004°44'1615.5
2015-Apr-28 18:26N 53°14' E 004°32'7916.0
2015-Apr-28 13:30N 52°06' E 003°27'1616.6
2015-Apr-28 12:33N 51°51' E 003°18'1616.3
2015-Apr-28 11:33N 51°36' E 003°08'1212.1
2015-Apr-28 10:34N 51°24' E 003°06'5 5.4
2015-Apr-28 09:33N 51°21' E 003°13'0 0.0
2015-Apr-28 08:33N 51°21' E 003°13'0 0.0
2015-Apr-28 07:33N 51°21' E 003°13'0 0.0
2015-Apr-28 06:33N 51°21' E 003°13'0 0.0
2015-Apr-28 05:33N 51°21' E 003°13'0 0.0
2015-Apr-28 04:18N 51°21' E 003°13'0 0.0
2015-Apr-28 03:30N 51°21' E 003°13'0 0.0
2015-Apr-28 02:33N 51°21' E 003°13'0 0.0
2015-Apr-28 01:33N 51°21' E 003°13'0 0.0
2015-Apr-28 00:33N 51°21' E 003°13'0 0.0
2015-Apr-27 23:33N 51°21' E 003°13'0 0.0
2015-Apr-27 22:33N 51°21' E 003°13'0 0.0
2015-Apr-27 21:33N 51°21' E 003°13'0 0.0
2015-Apr-27 20:33N 51°21' E 003°13'0 0.0
2015-Apr-27 19:27N 51°21' E 003°13'0 0.0
2015-Apr-27 18:33N 51°21' E 003°13'0 0.0
2015-Apr-27 17:30N 51°21' E 003°13'0 0.0
2015-Apr-27 16:33N 51°21' E 003°13'0 0.0
2015-Apr-27 15:33N 51°21' E 003°13'0 0.0
2015-Apr-27 14:33N 51°21' E 003°13'0 0.0
2015-Apr-27 13:33N 51°21' E 003°13'0 0.0
2015-Apr-27 12:33N 51°21' E 003°13'0 0.0
2015-Apr-27 11:33N 51°21' E 003°13'0 0.0
2015-Apr-27 10:30N 51°21' E 003°13'0 0.0
2015-Apr-27 09:33N 51°21' E 003°13'0 0.0
2015-Apr-27 08:33N 51°21' E 003°13'0 0.0
2015-Apr-27 07:33N 51°21' E 003°13'0 0.0
2015-Apr-27 06:33N 51°21' E 003°13'0 0.0
2015-Apr-27 05:33N 51°21' E 003°13'0 0.0
2015-Apr-27 04:33N 51°21' E 003°13'0 0.0
2015-Apr-27 03:27N 51°21' E 003°13'0 0.0
2015-Apr-27 02:33N 51°21' E 003°13'0 0.4
2015-Apr-27 01:33N 51°21' E 003°13'1010.2
2015-Apr-27 00:33N 51°27' E 002°60'1111.3
2015-Apr-26 23:33N 51°37' E 003°08'1312.8
2015-Apr-26 22:32N 51°50' E 003°14'1312.7
2015-Apr-26 21:30N 52°02' E 003°21'1412.7
2015-Apr-26 20:26N 52°15' E 003°30'9114.5
2015-Apr-26 14:11N 53°35' E 004°39'914.6
2015-Apr-26 13:33N 53°41' E 004°51'1414.2
2015-Apr-26 12:33N 53°50' E 005°10'1514.4
2015-Apr-26 11:32N 53°59' E 005°30'1414.1
2015-Apr-26 10:32N 54°10' E 005°43'7016.0
2015-Apr-26 06:11N 55°16' E 006°22'1216.0
2015-Apr-26 05:25N 55°28' E 006°29'  
Track history (hours):
 
Tides and Currents Weather Stations Pressure Air Temp Water Temp Dewpoint Dewpoint Depression Visibility Wind Speed Wind Dir Waves Ship Positions

Celandine

Last reported at 2015-May-05 23:33 UTC. Time now 2015-May-06 00:23 UTC.
Position N 57°43' E 011°06'.

Length 162 m; draft 6.2 m.

Type: Ship (hazmat cat A). MMSI: 205476000.

Date/timePositionNaut miles runAvg speedWind from/ knotsBaromVisibWave heightAir tempDewpointWater temp
2015-May-05 23:33N 57°43' E 011°06'1615.6
2015-May-05 22:33N 57°37' E 011°32'1111.4
2015-May-05 21:33N 57°41' E 011°52'0 0.0
2015-May-05 20:33N 57°41' E 011°52'0 0.0
2015-May-05 19:33N 57°41' E 011°52'0 0.0
2015-May-05 18:33N 57°41' E 011°52'0 0.0
2015-May-05 17:30N 57°41' E 011°52'0 0.0
2015-May-05 16:33N 57°41' E 011°52'0 0.0
2015-May-05 15:33N 57°41' E 011°52'0 0.0
2015-May-05 14:33N 57°41' E 011°52'0 0.0
2015-May-05 13:33N 57°41' E 011°52'0 0.0
2015-May-05 12:33N 57°41' E 011°52'0 0.0
2015-May-05 11:33N 57°41' E 011°52'0 0.0
2015-May-05 10:33N 57°41' E 011°52'0 0.0
2015-May-05 09:33N 57°41' E 011°52'0 0.0
2015-May-05 08:33N 57°41' E 011°52'0 0.0
2015-May-05 07:33N 57°41' E 011°52'0 0.0
2015-May-05 06:33N 57°41' E 011°52'0 0.0
2015-May-05 05:33N 57°41' E 011°52'0 0.0
2015-May-05 04:33N 57°41' E 011°52'0 0.0
2015-May-05 03:33N 57°41' E 011°52'0 0.0
2015-May-05 02:33N 57°41' E 011°52'0 0.0
2015-May-05 01:33N 57°41' E 011°52'0 0.0
2015-May-05 00:33N 57°41' E 011°52'0 0.0
2015-May-04 23:33N 57°41' E 011°52'0 0.0
2015-May-04 22:27N 57°41' E 011°52'0 0.0
2015-May-04 21:33N 57°41' E 011°52'0 0.0
2015-May-04 20:33N 57°41' E 011°52'0 0.0
2015-May-04 19:33N 57°41' E 011°52'0 0.0
2015-May-04 18:33N 57°41' E 011°52'0 0.0
2015-May-04 17:33N 57°41' E 011°52'0 0.0
2015-May-04 16:33N 57°41' E 011°52'0 0.0
2015-May-04 15:33N 57°41' E 011°52'0 0.0
2015-May-04 14:33N 57°41' E 011°52'0 0.0
2015-May-04 13:30N 57°41' E 011°52'0 0.0
2015-May-04 12:33N 57°41' E 011°52'0 0.0
2015-May-04 11:33N 57°41' E 011°52'0 0.0
2015-May-04 10:33N 57°41' E 011°52'0 0.0
2015-May-04 09:33N 57°41' E 011°52'0 0.0
2015-May-04 08:30N 57°41' E 011°52'0 0.0
2015-May-04 07:33N 57°41' E 011°52'0 0.0
2015-May-04 06:33N 57°41' E 011°52'0 0.0
2015-May-04 05:33N 57°41' E 011°52'0 0.0
2015-May-04 04:33N 57°41' E 011°52'0 0.0
2015-May-04 03:33N 57°41' E 011°52'10 9.7
2015-May-04 02:34N 57°36' E 011°37'1312.8
2015-May-04 01:33N 57°37' E 011°13'1513.9
2015-May-04 00:29N 57°45' E 010°49'2014.3
2015-May-03 23:06N 57°44' E 010°12'14815.2
2015-May-03 13:24N 55°60' E 006°60'1416.0
2015-May-03 12:33N 55°48' E 006°48'1615.8
2015-May-03 11:32N 55°34' E 006°34'1815.7
2015-May-03 10:25N 55°18' E 006°22'1516.0
2015-May-03 09:30N 55°04' E 006°14'5116.2
2015-May-03 06:19N 54°15' E 005°45'1215.5
2015-May-03 05:33N 54°03' E 005°40'1615.8
2015-May-03 04:33N 53°53' E 005°20'1616.0
2015-May-03 03:33N 53°42' E 004°59'1515.2
2015-May-03 02:33N 53°29' E 004°45'1615.7
2015-May-03 01:33N 53°15' E 004°36'1615.4
2015-May-03 00:33N 53°01' E 004°24'1515.1
2015-May-02 23:33N 52°48' E 004°12'1514.9
2015-May-02 22:33N 52°37' E 003°56'1514.9
2015-May-02 21:33N 52°26' E 003°38'1614.7
2015-May-02 20:29N 52°12' E 003°29'1314.5
2015-May-02 19:33N 51°59' E 003°24'1413.9
2015-May-02 18:33N 51°47' E 003°12'1514.7
2015-May-02 17:33N 51°32' E 003°07'1010.5
2015-May-02 16:34N 51°22' E 003°11'2 2.0
2015-May-02 15:32N 51°21' E 003°13'0 0.0
2015-May-02 14:32N 51°21' E 003°13'0 0.0
2015-May-02 13:29N 51°21' E 003°13'0 0.0
2015-May-02 12:32N 51°21' E 003°13'0 0.0
2015-May-02 11:32N 51°21' E 003°13'0 0.0
2015-May-02 10:32N 51°21' E 003°13'0 0.0
2015-May-02 09:32N 51°21' E 003°13'6 6.3
2015-May-02 08:33N 51°24' E 003°05'5 5.2
2015-May-02 07:33N 51°27' E 002°58'8 8.0
2015-May-02 06:33N 51°33' E 003°07'1110.8
2015-May-02 05:33N 51°44' E 003°10'1110.5
2015-May-02 04:32N 51°54' E 003°17'1010.0
2015-May-02 03:33N 52°03' E 003°21'1210.7
2015-May-02 02:27N 52°14' E 003°29'21 9.5
2015-May-02 00:15N 52°32' E 003°45'6 8.7
2015-May-01 23:32N 52°37' E 003°51'21 9.4
2015-May-01 21:18N 52°57' E 004°01'4810.2
2015-May-01 16:33N 53°38' E 004°45'9 9.3
2015-May-01 15:32N 53°43' E 004°58'10 9.6
2015-May-01 14:32N 53°49' E 005°12'1010.3
2015-May-01 13:33N 53°56' E 005°25'1110.5
2015-May-01 12:33N 54°03' E 005°38'1010.1
2015-May-01 11:33N 54°12' E 005°45'6510.8
2015-May-01 05:33N 55°13' E 006°20'20010.5
2015-Apr-30 10:33N 57°45' E 010°15'1110.8
2015-Apr-30 09:33N 57°50' E 010°33'1110.5
2015-Apr-30 08:33N 57°47' E 010°52'1212.0
2015-Apr-30 07:33N 57°42' E 011°12'1110.8
2015-Apr-30 06:33N 57°37' E 011°30'7 7.2
2015-Apr-30 05:33N 57°40' E 011°42'5 5.4
2015-Apr-30 04:32N 57°41' E 011°52'0 0.0
2015-Apr-30 03:32N 57°41' E 011°52'0 0.0
2015-Apr-30 02:32N 57°41' E 011°52'0 0.0
2015-Apr-30 01:32N 57°41' E 011°52'0 0.0
2015-Apr-30 00:32N 57°41' E 011°52'0 0.0
2015-Apr-29 23:32N 57°41' E 011°52'0 0.0
2015-Apr-29 22:32N 57°41' E 011°52'0 0.0
2015-Apr-29 21:32N 57°41' E 011°52'1 0.5
2015-Apr-29 20:33N 57°41' E 011°51'1313.4
2015-Apr-29 19:34N 57°37' E 011°27'1110.6
2015-Apr-29 18:34N 57°37' E 011°08'1010.0
2015-Apr-29 17:33N 57°43' E 010°51'1312.6
2015-Apr-29 16:29N 57°45' E 010°27'15914.5
2015-Apr-29 05:33N 55°56' E 006°56'1716.9
2015-Apr-29 04:33N 55°41' E 006°41'1716.9
2015-Apr-29 03:33N 55°26' E 006°29'1917.1
2015-Apr-29 02:25N 55°07' E 006°17'5617.0
2015-Apr-28 23:08N 54°15' E 005°46'1016.5
2015-Apr-28 22:33N 54°06' E 005°40'1716.6
2015-Apr-28 21:33N 53°53' E 005°22'1616.5
2015-Apr-28 20:33N 53°41' E 005°03'1715.6
2015-Apr-28 19:29N 53°29' E 004°44'1615.5
2015-Apr-28 18:26N 53°14' E 004°32'7916.0
2015-Apr-28 13:30N 52°06' E 003°27'1616.6
2015-Apr-28 12:33N 51°51' E 003°18'1616.3
2015-Apr-28 11:33N 51°36' E 003°08'1212.1
2015-Apr-28 10:34N 51°24' E 003°06'5 5.4
2015-Apr-28 09:33N 51°21' E 003°13'0 0.0
2015-Apr-28 08:33N 51°21' E 003°13'0 0.0
2015-Apr-28 07:33N 51°21' E 003°13'0 0.0
2015-Apr-28 06:33N 51°21' E 003°13'0 0.0
2015-Apr-28 05:33N 51°21' E 003°13'0 0.0
2015-Apr-28 04:18N 51°21' E 003°13'0 0.0
2015-Apr-28 03:30N 51°21' E 003°13'0 0.0
2015-Apr-28 02:33N 51°21' E 003°13'0 0.0
2015-Apr-28 01:33N 51°21' E 003°13'0 0.0
2015-Apr-28 00:33N 51°21' E 003°13'0 0.0
2015-Apr-27 23:33N 51°21' E 003°13'0 0.0
2015-Apr-27 22:33N 51°21' E 003°13'0 0.0
2015-Apr-27 21:33N 51°21' E 003°13'0 0.0
2015-Apr-27 20:33N 51°21' E 003°13'0 0.0
2015-Apr-27 19:27N 51°21' E 003°13'0 0.0
2015-Apr-27 18:33N 51°21' E 003°13'0 0.0
2015-Apr-27 17:30N 51°21' E 003°13'0 0.0
2015-Apr-27 16:33N 51°21' E 003°13'0 0.0
2015-Apr-27 15:33N 51°21' E 003°13'0 0.0
2015-Apr-27 14:33N 51°21' E 003°13'0 0.0
2015-Apr-27 13:33N 51°21' E 003°13'0 0.0
2015-Apr-27 12:33N 51°21' E 003°13'0 0.0
2015-Apr-27 11:33N 51°21' E 003°13'0 0.0
2015-Apr-27 10:30N 51°21' E 003°13'0 0.0
2015-Apr-27 09:33N 51°21' E 003°13'0 0.0
2015-Apr-27 08:33N 51°21' E 003°13'0 0.0
2015-Apr-27 07:33N 51°21' E 003°13'0 0.0
2015-Apr-27 06:33N 51°21' E 003°13'0 0.0
2015-Apr-27 05:33N 51°21' E 003°13'0 0.0
2015-Apr-27 04:33N 51°21' E 003°13'0 0.0
2015-Apr-27 03:27N 51°21' E 003°13'0 0.0
2015-Apr-27 02:33N 51°21' E 003°13'0 0.4
2015-Apr-27 01:33N 51°21' E 003°13'1010.2
2015-Apr-27 00:33N 51°27' E 002°60'1111.3
2015-Apr-26 23:33N 51°37' E 003°08'1312.8
2015-Apr-26 22:32N 51°50' E 003°14'1312.7
2015-Apr-26 21:30N 52°02' E 003°21'1412.7
2015-Apr-26 20:26N 52°15' E 003°30'9114.5
2015-Apr-26 14:11N 53°35' E 004°39'914.6
2015-Apr-26 13:33N 53°41' E 004°51'1414.2
2015-Apr-26 12:33N 53°50' E 005°10'1514.4
2015-Apr-26 11:32N 53°59' E 005°30'1414.1
2015-Apr-26 10:32N 54°10' E 005°43'7016.0
2015-Apr-26 06:11N 55°16' E 006°22'1216.0
2015-Apr-26 05:25N 55°28' E 006°29'  

Dump ship's entire track history